createdAt,value
2018-08-23T00:00:52.128Z,21.50
2018-08-23T00:03:25.878Z,21.40
2018-08-23T00:05:55.328Z,21.40
2018-08-23T00:08:24.139Z,21.30
2018-08-23T00:10:53.120Z,21.30
2018-08-23T00:13:21.837Z,21.40
2018-08-23T00:15:50.401Z,21.30
2018-08-23T00:18:18.710Z,21.30
2018-08-23T00:20:47.065Z,21.40
2018-08-23T00:23:15.313Z,21.40
2018-08-23T00:25:43.620Z,21.40
2018-08-23T00:28:12.051Z,21.30
2018-08-23T00:30:40.611Z,21.20
2018-08-23T00:33:08.894Z,21.20
2018-08-23T00:35:38.385Z,21.20
2018-08-23T00:38:07.635Z,21.20
2018-08-23T00:40:41.535Z,21.10
2018-08-23T00:43:11.073Z,21.10
2018-08-23T00:45:39.394Z,21.20
2018-08-23T00:48:07.803Z,21.10
2018-08-23T00:50:56.995Z,21.10
2018-08-23T00:53:25.685Z,21.10
2018-08-23T00:56:25.160Z,21.30
2018-08-23T00:59:01.689Z,21.30
2018-08-23T01:01:30.488Z,21.30
2018-08-23T01:03:58.920Z,21.30
2018-08-23T01:06:40.778Z,21.40
2018-08-23T01:09:12.332Z,21.30
2018-08-23T01:11:40.610Z,21.30
2018-08-23T01:14:09.272Z,21.30
2018-08-23T01:16:37.660Z,21.20
2018-08-23T01:19:11.403Z,21.10
2018-08-23T01:21:51.707Z,21.20
2018-08-23T01:24:19.973Z,21.10
2018-08-23T01:26:48.278Z,21.10
2018-08-23T01:29:29.227Z,21.10
2018-08-23T01:32:08.181Z,21.10
2018-08-23T01:34:36.595Z,21.10
2018-08-23T01:37:04.895Z,21.10
2018-08-23T01:39:33.700Z,21.10
2018-08-23T01:42:01.940Z,21.20
2018-08-23T01:44:35.378Z,21.10
2018-08-23T01:47:03.679Z,21.00
2018-08-23T01:49:31.982Z,20.90
2018-08-23T01:52:00.314Z,20.90
2018-08-23T01:54:28.590Z,21.00
2018-08-23T01:56:56.960Z,20.90
2018-08-23T01:59:25.308Z,21.00
2018-08-23T02:01:53.608Z,20.90
2018-08-23T02:04:21.890Z,21.00
2018-08-23T02:06:50.249Z,21.00
2018-08-23T02:09:18.591Z,20.90
2018-08-23T02:11:46.916Z,20.90
2018-08-23T02:14:15.171Z,20.90
2018-08-23T02:16:52.094Z,21.00
2018-08-23T02:19:21.277Z,21.00
2018-08-23T02:21:49.568Z,20.90
2018-08-23T02:24:19.577Z,20.90
2018-08-23T02:26:47.902Z,21.00
2018-08-23T02:29:20.955Z,20.90
2018-08-23T02:31:49.241Z,20.90
2018-08-23T02:34:17.564Z,20.80
2018-08-23T02:36:45.896Z,20.80
2018-08-23T02:39:14.191Z,20.80
2018-08-23T02:41:42.441Z,20.70
2018-08-23T02:44:10.822Z,20.70
2018-08-23T02:46:39.109Z,20.70
2018-08-23T02:49:07.461Z,20.70
2018-08-23T02:51:41.625Z,20.70
2018-08-23T02:54:11.777Z,20.70
2018-08-23T02:56:40.770Z,20.60
2018-08-23T02:59:09.084Z,20.60
2018-08-23T03:01:44.456Z,20.70
2018-08-23T03:04:13.898Z,20.60
2018-08-23T03:06:57.705Z,20.40
2018-08-23T03:09:29.835Z,20.40
2018-08-23T03:11:59.352Z,20.50
2018-08-23T03:14:28.345Z,20.60
2018-08-23T03:17:33.978Z,20.50
2018-08-23T03:20:07.970Z,20.50
2018-08-23T03:22:36.676Z,20.50
2018-08-23T03:25:06.498Z,20.50
2018-08-23T03:27:34.828Z,20.60
2018-08-23T03:30:04.162Z,20.50
2018-08-23T03:32:32.497Z,20.50
2018-08-23T03:35:01.095Z,20.50
2018-08-23T03:37:29.569Z,20.40
2018-08-23T03:39:58.118Z,20.40
2018-08-23T03:42:26.686Z,20.40
2018-08-23T03:44:55.866Z,20.50
2018-08-23T03:47:24.702Z,20.60
2018-08-23T03:49:52.972Z,20.40
2018-08-23T03:52:53.239Z,20.40
2018-08-23T03:55:22.764Z,20.40
2018-08-23T03:58:06.480Z,20.20
2018-08-23T04:00:40.584Z,20.10
2018-08-23T04:03:11.865Z,20.10
2018-08-23T04:05:40.209Z,20.00
2018-08-23T04:08:08.473Z,20.00
2018-08-23T04:10:36.804Z,19.90
2018-08-23T04:13:05.270Z,19.90
2018-08-23T04:15:33.620Z,19.90
2018-08-23T04:18:08.293Z,19.90
2018-08-23T04:20:41.361Z,19.80
2018-08-23T04:23:09.646Z,19.90
2018-08-23T04:25:37.974Z,19.90
2018-08-23T04:28:06.314Z,20.00
2018-08-23T04:30:34.622Z,20.00
2018-08-23T04:33:02.871Z,19.80
2018-08-23T04:35:31.178Z,19.80
2018-08-23T04:37:59.481Z,19.70
2018-08-23T04:40:27.826Z,19.70
2018-08-23T04:42:56.171Z,19.70
2018-08-23T04:45:25.849Z,19.60
2018-08-23T04:47:58.687Z,19.60
2018-08-23T04:50:27.070Z,19.60
2018-08-23T04:52:55.419Z,19.60
2018-08-23T04:55:24.422Z,19.60
2018-08-23T04:57:52.801Z,19.50
2018-08-23T05:00:21.091Z,19.50
2018-08-23T05:02:49.389Z,19.50
2018-08-23T05:05:17.761Z,19.50
2018-08-23T05:07:46.207Z,19.50
2018-08-23T05:10:14.732Z,19.40
2018-08-23T05:12:43.052Z,19.40
2018-08-23T05:15:11.359Z,19.40
2018-08-23T05:17:39.680Z,19.40
2018-08-23T05:20:08.258Z,19.40
2018-08-23T05:22:36.692Z,19.30
2018-08-23T05:25:13.729Z,19.30
2018-08-23T05:27:58.766Z,19.30
2018-08-23T05:30:28.272Z,19.30
2018-08-23T05:33:12.395Z,19.50
2018-08-23T05:35:40.690Z,19.50
2018-08-23T05:38:09.690Z,19.40
2018-08-23T05:40:43.297Z,19.50
2018-08-23T05:43:11.795Z,19.40
2018-08-23T05:45:48.551Z,19.50
2018-08-23T05:48:28.823Z,19.50
2018-08-23T05:50:57.398Z,19.50
2018-08-23T05:53:25.655Z,19.60
2018-08-23T05:55:55.977Z,19.60
2018-08-23T05:58:25.926Z,19.70
2018-08-23T06:00:54.706Z,19.80
2018-08-23T06:03:22.985Z,19.80
2018-08-23T06:05:51.667Z,19.80
2018-08-23T06:08:20.051Z,20.00
2018-08-23T06:10:50.223Z,20.10
2018-08-23T06:13:18.856Z,20.20
2018-08-23T06:15:54.334Z,20.20
2018-08-23T06:18:23.498Z,20.30
2018-08-23T06:20:51.808Z,20.40
2018-08-23T06:23:20.352Z,20.50
2018-08-23T06:25:49.260Z,20.50
2018-08-23T06:28:20.883Z,20.60
2018-08-23T06:30:49.212Z,20.60
2018-08-23T06:33:34.356Z,20.80
2018-08-23T06:36:02.755Z,20.80
2018-08-23T06:38:31.937Z,20.90
2018-08-23T06:41:01.862Z,21.10
2018-08-23T06:43:31.847Z,21.20
2018-08-23T06:46:01.623Z,21.30
2018-08-23T06:48:30.781Z,21.50
2018-08-23T06:51:00.863Z,21.60
2018-08-23T06:53:45.979Z,21.70
2018-08-23T06:56:14.923Z,21.90
2018-08-23T06:58:43.257Z,22.00
2018-08-23T07:01:27.092Z,22.10
2018-08-23T07:04:01.643Z,22.30
2018-08-23T07:06:30.688Z,22.50
2018-08-23T07:08:59.013Z,22.70
2018-08-23T07:11:27.339Z,22.80
2018-08-23T07:14:01.012Z,23.00
2018-08-23T07:16:29.414Z,23.20
2018-08-23T07:18:57.756Z,23.30
2018-08-23T07:21:26.014Z,23.60
2018-08-23T07:23:54.458Z,23.70
2018-08-23T07:26:22.824Z,23.90
2018-08-23T07:28:51.103Z,24.10
2018-08-23T07:31:19.346Z,24.40
2018-08-23T07:33:51.626Z,24.50
2018-08-23T07:36:27.467Z,24.70
2018-08-23T07:38:56.193Z,24.90
2018-08-23T07:41:24.490Z,25.00
2018-08-23T07:43:52.765Z,25.10
2018-08-23T07:46:21.102Z,25.10
2018-08-23T07:48:49.335Z,25.10
2018-08-23T07:51:25.062Z,25.10
2018-08-23T07:53:54.315Z,25.30
2018-08-23T07:56:26.906Z,25.40
2018-08-23T07:58:56.384Z,25.50
2018-08-23T08:01:29.214Z,25.70
2018-08-23T08:03:58.374Z,25.90
2018-08-23T08:06:27.481Z,26.00
2018-08-23T08:08:57.353Z,26.10
2018-08-23T08:11:25.778Z,26.20
2018-08-23T08:13:59.445Z,26.20
2018-08-23T08:16:32.783Z,26.20
2018-08-23T08:19:01.144Z,26.40
2018-08-23T08:21:29.532Z,26.40
2018-08-23T08:23:59.230Z,26.50
2018-08-23T08:26:28.806Z,26.60
2018-08-23T08:28:57.157Z,26.70
2018-08-23T08:31:25.443Z,26.80
2018-08-23T08:33:57.140Z,26.80
2018-08-23T08:36:26.789Z,26.90
2018-08-23T08:38:55.063Z,26.90
2018-08-23T08:41:23.390Z,27.00
2018-08-23T08:43:51.778Z,27.00
2018-08-23T08:46:20.086Z,26.90
2018-08-23T08:48:48.485Z,26.90
2018-08-23T08:51:32.325Z,26.90
2018-08-23T08:54:02.923Z,27.00
2018-08-23T08:56:36.658Z,27.00
2018-08-23T08:59:04.989Z,27.10
2018-08-23T09:01:33.360Z,27.20
2018-08-23T09:04:01.671Z,27.30
2018-08-23T09:06:35.337Z,27.30
2018-08-23T09:09:42.252Z,27.50
2018-08-23T09:12:11.724Z,27.60
2018-08-23T09:14:41.105Z,27.70
2018-08-23T09:17:26.071Z,27.60
2018-08-23T09:20:04.467Z,27.70
2018-08-23T09:22:36.259Z,27.90
2018-08-23T09:25:06.424Z,28.00
2018-08-23T09:27:34.780Z,28.10
2018-08-23T09:30:03.088Z,28.20
2018-08-23T09:32:31.466Z,28.20
2018-08-23T09:35:01.950Z,28.30
2018-08-23T09:37:34.529Z,28.40
2018-08-23T09:40:02.901Z,28.50
2018-08-23T09:42:34.142Z,28.50
2018-08-23T09:45:07.218Z,28.60
2018-08-23T09:47:35.481Z,28.70
2018-08-23T09:50:03.826Z,28.90
2018-08-23T09:52:33.676Z,28.90
2018-08-23T09:55:01.906Z,28.90
2018-08-23T09:57:30.147Z,28.80
2018-08-23T09:59:58.364Z,28.90
2018-08-23T10:02:31.969Z,29.00
2018-08-23T10:05:04.294Z,29.10
2018-08-23T10:07:37.968Z,29.10
2018-08-23T10:10:11.531Z,29.20
2018-08-23T10:12:45.226Z,29.40
2018-08-23T10:15:18.915Z,29.50
2018-08-23T10:17:52.446Z,29.60
2018-08-23T10:20:26.081Z,29.50
2018-08-23T10:23:01.758Z,29.50
2018-08-23T10:25:39.988Z,29.60
2018-08-23T10:28:09.849Z,29.70
2018-08-23T10:30:38.105Z,29.70
2018-08-23T10:33:06.529Z,29.80
2018-08-23T10:35:35.389Z,29.80
2018-08-23T10:38:03.748Z,29.90
2018-08-23T10:40:32.011Z,29.90
2018-08-23T10:43:00.265Z,30.00
2018-08-23T10:45:28.526Z,30.00
2018-08-23T10:48:02.183Z,30.10
2018-08-23T10:50:30.447Z,30.10
2018-08-23T10:52:58.634Z,30.20
2018-08-23T10:55:26.877Z,30.30
2018-08-23T10:57:55.205Z,30.40
2018-08-23T11:00:23.438Z,30.50
2018-08-23T11:02:51.689Z,30.80
2018-08-23T11:05:19.913Z,30.90
2018-08-23T11:07:53.513Z,31.20
2018-08-23T11:10:27.150Z,31.40
2018-08-23T11:13:00.918Z,31.60
2018-08-23T11:15:29.286Z,31.70
2018-08-23T11:18:02.952Z,31.50
2018-08-23T11:20:35.471Z,31.40
2018-08-23T11:23:03.779Z,31.10
2018-08-23T11:25:32.116Z,30.90
2018-08-23T11:28:04.659Z,30.80
2018-08-23T11:30:33.031Z,30.80
2018-08-23T11:33:05.537Z,30.70
2018-08-23T11:35:33.853Z,30.30
2018-08-23T11:38:02.249Z,30.00
2018-08-23T11:40:30.652Z,30.00
2018-08-23T11:42:59.008Z,30.00
2018-08-23T11:45:27.383Z,30.00
2018-08-23T11:47:56.150Z,30.00
2018-08-23T11:50:24.639Z,30.10
2018-08-23T11:52:53.949Z,30.20
2018-08-23T11:55:22.267Z,30.20
2018-08-23T11:57:50.893Z,30.10
2018-08-23T12:00:19.770Z,30.10
2018-08-23T12:02:48.189Z,30.10
2018-08-23T12:05:17.979Z,30.20
2018-08-23T12:07:48.727Z,30.20
2018-08-23T12:10:18.395Z,30.30
2018-08-23T12:12:47.737Z,30.50
2018-08-23T12:15:22.540Z,30.60
2018-08-23T12:17:51.542Z,30.70
2018-08-23T12:20:19.884Z,30.80
2018-08-23T12:22:48.238Z,30.90
2018-08-23T12:25:16.576Z,31.10
2018-08-23T12:27:52.187Z,31.10
2018-08-23T12:30:20.864Z,31.00
2018-08-23T12:32:49.191Z,31.10
2018-08-23T12:35:17.535Z,31.10
2018-08-23T12:39:02.372Z,31.10
2018-08-23T12:41:35.964Z,31.10
2018-08-23T12:44:04.341Z,30.80
2018-08-23T12:46:32.724Z,30.70
2018-08-23T12:49:01.098Z,30.40
2018-08-23T12:51:29.461Z,30.20
2018-08-23T12:53:57.758Z,30.20
2018-08-23T12:56:26.051Z,30.40
2018-08-23T12:58:54.339Z,30.60
2018-08-23T13:01:22.626Z,30.80
2018-08-23T13:03:50.976Z,30.90
2018-08-23T13:06:19.259Z,30.80
2018-08-23T13:08:47.561Z,30.90
2018-08-23T13:11:15.851Z,31.10
2018-08-23T13:13:44.535Z,31.10
2018-08-23T13:16:12.807Z,30.80
2018-08-23T13:18:41.154Z,30.90
2018-08-23T13:21:09.984Z,30.90
2018-08-23T13:23:42.699Z,30.80
2018-08-23T13:26:11.291Z,30.70
2018-08-23T13:28:39.610Z,30.60
2018-08-23T13:31:07.932Z,30.70
2018-08-23T13:33:36.302Z,30.60
2018-08-23T13:36:04.639Z,30.70
2018-08-23T13:38:33.089Z,30.80
2018-08-23T13:41:01.484Z,31.00
2018-08-23T13:43:29.744Z,31.10
2018-08-23T13:45:58.080Z,31.20
2018-08-23T13:48:26.429Z,31.40
2018-08-23T13:50:54.659Z,31.60
2018-08-23T13:53:22.941Z,31.90
2018-08-23T13:55:51.288Z,32.30
2018-08-23T13:58:19.603Z,32.40
2018-08-23T14:00:48.109Z,32.40
2018-08-23T14:03:16.421Z,32.30
2018-08-23T14:05:44.738Z,32.30
2018-08-23T14:08:13.093Z,32.30
2018-08-23T14:10:41.429Z,32.30
2018-08-23T14:13:10.101Z,32.10
2018-08-23T14:15:43.681Z,32.10
2018-08-23T14:18:13.186Z,31.90
2018-08-23T14:20:41.524Z,31.80
2018-08-23T14:23:09.843Z,31.60
2018-08-23T14:25:38.362Z,31.30
2018-08-23T14:28:09.086Z,31.50
2018-08-23T14:30:37.658Z,31.60
2018-08-23T14:33:05.963Z,31.40
2018-08-23T14:35:34.153Z,31.50
2018-08-23T14:38:02.463Z,31.50
2018-08-23T14:40:30.775Z,31.60
2018-08-23T14:42:59.024Z,31.70
2018-08-23T14:45:32.344Z,31.90
2018-08-23T14:48:05.973Z,32.00
2018-08-23T14:50:35.266Z,32.10
2018-08-23T14:53:04.327Z,32.40
2018-08-23T14:55:38.082Z,32.20
2018-08-23T14:58:06.777Z,32.00
2018-08-23T15:00:35.128Z,32.10
2018-08-23T15:03:03.473Z,31.90
2018-08-23T15:05:31.783Z,31.90
2018-08-23T15:08:00.184Z,31.80
2018-08-23T15:10:28.534Z,31.60
2018-08-23T15:12:56.848Z,31.30
2018-08-23T15:15:30.667Z,31.40
2018-08-23T15:17:58.977Z,31.30
2018-08-23T15:20:27.323Z,31.00
2018-08-23T15:22:55.709Z,31.10
2018-08-23T15:25:23.980Z,31.10
2018-08-23T15:27:52.283Z,31.10
2018-08-23T15:30:20.602Z,31.10
2018-08-23T15:32:48.862Z,31.00
2018-08-23T15:35:18.173Z,31.00
2018-08-23T15:37:46.436Z,30.90
2018-08-23T15:40:14.763Z,30.90
2018-08-23T15:42:43.076Z,30.90
2018-08-23T15:45:11.417Z,31.00
2018-08-23T15:47:39.729Z,31.10
2018-08-23T15:50:08.034Z,31.20
2018-08-23T15:52:36.411Z,31.30
2018-08-23T15:55:05.053Z,31.30
2018-08-23T15:57:33.359Z,31.30
2018-08-23T16:00:01.684Z,31.10
2018-08-23T16:02:30.176Z,31.10
2018-08-23T16:04:58.587Z,31.00
2018-08-23T16:07:27.002Z,30.90
2018-08-23T16:09:55.368Z,30.90
2018-08-23T16:12:23.631Z,30.60
2018-08-23T16:14:51.984Z,30.60
2018-08-23T16:17:25.642Z,30.50
2018-08-23T16:19:59.315Z,30.30
2018-08-23T16:22:27.631Z,30.20
2018-08-23T16:24:55.899Z,30.20
2018-08-23T16:27:24.168Z,30.00
2018-08-23T16:29:53.245Z,29.80
2018-08-23T16:32:26.987Z,29.80
2018-08-23T16:34:55.328Z,29.70
2018-08-23T16:37:24.546Z,29.70
2018-08-23T16:39:52.829Z,29.70
2018-08-23T16:42:21.175Z,29.50
2018-08-23T16:44:49.452Z,29.50
2018-08-23T16:47:17.701Z,29.30
2018-08-23T16:49:45.993Z,29.20
2018-08-23T16:52:14.240Z,29.10
2018-08-23T16:54:42.507Z,28.90
2018-08-23T16:57:10.923Z,28.90
2018-08-23T16:59:39.283Z,28.80
2018-08-23T17:02:07.767Z,28.70
2018-08-23T17:04:41.388Z,28.70
2018-08-23T17:07:09.841Z,28.50
2018-08-23T17:09:38.396Z,28.40
2018-08-23T17:12:06.873Z,28.40
2018-08-23T17:14:35.207Z,28.30
2018-08-23T17:17:08.834Z,28.30
2018-08-23T17:19:37.193Z,28.20
2018-08-23T17:22:05.572Z,28.10
2018-08-23T17:24:34.010Z,28.00
2018-08-23T17:27:02.196Z,27.80
2018-08-23T17:29:30.884Z,27.80
2018-08-23T17:31:59.245Z,27.40
2018-08-23T17:34:27.602Z,26.80
2018-08-23T17:36:55.973Z,26.50
2018-08-23T17:39:24.471Z,26.00
2018-08-23T17:41:52.797Z,25.70
2018-08-23T17:44:21.185Z,25.50
2018-08-23T17:46:49.581Z,25.30
2018-08-23T17:49:17.978Z,25.10
2018-08-23T17:51:46.341Z,25.00
2018-08-23T17:54:14.662Z,25.00
2018-08-23T17:56:42.944Z,25.00
2018-08-23T17:59:11.178Z,25.20
2018-08-23T18:01:39.650Z,25.00
2018-08-23T18:04:08.044Z,25.00
2018-08-23T18:06:36.378Z,24.90
2018-08-23T18:09:07.912Z,24.80
2018-08-23T18:11:36.260Z,24.60
2018-08-23T18:14:04.681Z,24.30
2018-08-23T18:16:38.295Z,24.00
2018-08-23T18:19:06.560Z,23.50
2018-08-23T18:21:34.887Z,23.30
2018-08-23T18:24:03.184Z,22.90
2018-08-23T18:26:31.750Z,22.60
2018-08-23T18:29:00.106Z,22.30
2018-08-23T18:31:28.399Z,21.90
2018-08-23T18:33:56.702Z,21.60
2018-08-23T18:36:24.994Z,21.20
2018-08-23T18:38:53.265Z,20.80
2018-08-23T18:41:21.609Z,20.70
2018-08-23T18:43:49.907Z,20.60
2018-08-23T18:46:18.260Z,20.40
2018-08-23T18:48:46.562Z,20.40
2018-08-23T18:51:14.968Z,20.40
2018-08-23T18:53:43.216Z,20.20
2018-08-23T18:56:11.593Z,20.00
2018-08-23T18:58:39.985Z,19.90
2018-08-23T19:01:08.293Z,19.70
2018-08-23T19:03:36.633Z,19.80
2018-08-23T19:06:05.096Z,19.70
2018-08-23T19:08:33.383Z,19.70
2018-08-23T19:11:01.738Z,19.60
2018-08-23T19:13:30.043Z,19.60
2018-08-23T19:16:03.734Z,19.50
2018-08-23T19:18:32.075Z,19.50
2018-08-23T19:21:00.473Z,19.50
2018-08-23T19:23:28.779Z,19.40
2018-08-23T19:25:57.052Z,19.50
2018-08-23T19:28:25.371Z,19.40
2018-08-23T19:30:53.682Z,19.30
2018-08-23T19:33:21.993Z,19.30
2018-08-23T19:35:50.345Z,19.20
2018-08-23T19:38:18.654Z,19.20
2018-08-23T19:40:47.031Z,19.20
2018-08-23T19:43:15.447Z,19.20
2018-08-23T19:45:49.084Z,19.10
2018-08-23T19:48:17.494Z,19.10
2018-08-23T19:50:45.715Z,19.10
2018-08-23T19:53:14.152Z,19.10
2018-08-23T19:55:42.526Z,19.20
2018-08-23T19:58:10.870Z,19.20
2018-08-23T20:00:39.198Z,19.30
2018-08-23T20:03:07.526Z,19.20
2018-08-23T20:05:35.808Z,19.30
2018-08-23T20:08:04.087Z,19.30
2018-08-23T20:10:32.464Z,19.40
2018-08-23T20:13:00.750Z,19.40
2018-08-23T20:15:29.082Z,19.40
2018-08-23T20:17:57.558Z,19.30
2018-08-23T20:20:25.760Z,19.30
2018-08-23T20:22:54.118Z,19.40
2018-08-23T20:25:22.513Z,19.40
2018-08-23T20:27:50.796Z,19.40
2018-08-23T20:30:19.184Z,19.40
2018-08-23T20:32:47.505Z,19.40
2018-08-23T20:35:15.831Z,19.40
2018-08-23T20:37:44.202Z,19.40
2018-08-23T20:40:12.486Z,19.40
2018-08-23T20:42:40.827Z,19.40
2018-08-23T20:45:09.205Z,19.30
2018-08-23T20:47:37.475Z,19.30
2018-08-23T20:50:05.889Z,19.30
2018-08-23T20:52:34.202Z,19.20
2018-08-23T20:55:02.427Z,19.10
2018-08-23T20:57:30.717Z,19.10
2018-08-23T20:59:59.113Z,19.10
2018-08-23T21:02:27.395Z,19.10
2018-08-23T21:04:55.705Z,19.00
2018-08-23T21:07:24.270Z,19.10
2018-08-23T21:09:52.535Z,19.10
2018-08-23T21:12:20.905Z,19.10
2018-08-23T21:14:49.193Z,19.00
2018-08-23T21:17:17.470Z,18.90
2018-08-23T21:19:45.780Z,18.90
2018-08-23T21:22:14.127Z,19.00
2018-08-23T21:24:42.538Z,18.90
2018-08-23T21:27:11.890Z,18.90
2018-08-23T21:29:40.240Z,18.90
2018-08-23T21:32:08.554Z,18.90
2018-08-23T21:34:36.846Z,18.90
2018-08-23T21:37:05.337Z,18.90
2018-08-23T21:39:33.618Z,19.00
2018-08-23T21:42:01.932Z,19.00
2018-08-23T21:44:30.210Z,18.90
2018-08-23T21:46:58.647Z,19.00
2018-08-23T21:49:26.876Z,18.90
2018-08-23T21:51:55.161Z,18.90
2018-08-23T21:54:23.474Z,19.00
2018-08-23T21:56:51.772Z,18.90
2018-08-23T21:59:20.058Z,18.90
2018-08-23T22:01:48.495Z,18.90
2018-08-23T22:04:16.814Z,18.90
2018-08-23T22:06:45.091Z,19.00
2018-08-23T22:09:13.402Z,18.90
2018-08-23T22:11:41.700Z,18.90
2018-08-23T22:14:10.062Z,18.90
2018-08-23T22:16:38.413Z,18.90
2018-08-23T22:19:06.802Z,19.00
2018-08-23T22:21:35.121Z,19.00
2018-08-23T22:24:03.397Z,18.90
2018-08-23T22:26:31.866Z,18.90
2018-08-23T22:29:00.118Z,19.00
2018-08-23T22:31:28.435Z,19.00
2018-08-23T22:33:56.769Z,18.90
2018-08-23T22:36:25.171Z,19.00
2018-08-23T22:38:53.577Z,19.00
2018-08-23T22:41:21.971Z,18.90
2018-08-23T22:43:50.277Z,19.00
2018-08-23T22:46:18.564Z,19.10
2018-08-23T22:48:46.943Z,19.20
2018-08-23T22:51:15.286Z,19.20
2018-08-23T22:53:43.715Z,19.20
2018-08-23T22:56:12.118Z,19.20
2018-08-23T22:58:40.432Z,19.20
2018-08-23T23:01:08.841Z,19.20
2018-08-23T23:03:42.463Z,19.20
2018-08-23T23:06:10.835Z,19.30
2018-08-23T23:08:39.191Z,19.30
2018-08-23T23:11:07.537Z,19.40
2018-08-23T23:13:35.947Z,19.30
2018-08-23T23:16:04.477Z,19.50
2018-08-23T23:18:32.862Z,19.30
2018-08-23T23:21:01.292Z,19.30
2018-08-23T23:23:29.593Z,19.40
2018-08-23T23:25:57.880Z,19.30
2018-08-23T23:28:26.313Z,19.30
2018-08-23T23:30:54.667Z,19.40
2018-08-23T23:33:23.000Z,19.30
2018-08-23T23:35:51.282Z,19.40
2018-08-23T23:38:19.566Z,19.50
2018-08-23T23:40:47.890Z,19.50
2018-08-23T23:43:16.214Z,19.50
2018-08-23T23:45:44.548Z,19.50
2018-08-23T23:48:12.829Z,19.50
2018-08-23T23:50:41.228Z,19.50
2018-08-23T23:53:09.587Z,19.50
2018-08-23T23:55:37.977Z,19.50
2018-08-23T23:58:06.442Z,19.50
